Time;durP1;ratioP1;P1;durP2;ratioP2;P2;SDS_P1;SDS_P2;PMS_P1;PMS_P2;Temp;Humidity;BMP_temperature;BMP_pressure;BME280_temperature;BME280_humidity;BME280_pressure;Samples;Min_cycle;Max_cycle;Signal;HPM_P1;HPM_P2
2021/05/27 00:02:45;;;;;;;4.45;2.40;;;;;;;10.71;100.00;99965.72;712286;1179;114047;-74
2021/05/27 00:18:06;;;;;;;4.75;2.38;;;;;;;10.75;100.00;99969.70;712366;1180;113952;-74
2021/05/27 00:33:26;;;;;;;4.68;2.50;;;;;;;10.71;100.00;99953.41;712655;1203;114156;-74
2021/05/27 00:49:02;;;;;;;7.30;3.40;;;;;;;10.78;100.00;99944.01;712710;1206;114691;-74
2021/05/27 01:04:22;;;;;;;8.48;2.58;;;;;;;10.74;100.00;99950.52;712461;1191;114489;-74
2021/05/27 01:19:42;;;;;;;3.13;1.90;;;;;;;10.84;100.00;99939.16;712575;1205;114190;-73
2021/05/27 01:35:05;;;;;;;4.75;2.30;;;;;;;10.95;100.00;99938.94;712783;1202;114309;-74
2021/05/27 01:50:26;;;;;;;3.33;2.20;;;;;;;11.10;100.00;99924.36;712691;1203;115642;-74
2021/05/27 02:05:47;;;;;;;3.90;2.13;;;;;;;11.08;100.00;99928.92;712764;1203;114508;-75
2021/05/27 02:21:07;;;;;;;4.20;2.90;;;;;;;11.17;100.00;99926.41;712867;1203;115633;-76
2021/05/27 02:36:28;;;;;;;2.55;1.70;;;;;;;11.12;100.00;99925.02;712547;1206;115370;-74
2021/05/27 02:51:48;;;;;;;4.93;2.20;;;;;;;11.05;100.00;99917.91;712585;1206;114000;-75
2021/05/27 03:07:09;;;;;;;3.50;2.10;;;;;;;11.07;100.00;99922.04;712570;1205;115770;-74
2021/05/27 03:22:29;;;;;;;2.83;1.63;;;;;;;11.09;100.00;99916.64;712790;1202;114024;-74
2021/05/27 03:37:50;;;;;;;1.73;1.43;;;;;;;11.03;100.00;99904.91;712620;1202;116005;-76
2021/05/27 03:53:11;;;;;;;2.60;1.60;;;;;;;11.19;100.00;99921.81;712904;1203;114322;-75
2021/05/27 04:08:32;;;;;;;3.53;2.30;;;;;;;11.31;100.00;99910.95;713145;1203;114446;-75
2021/05/27 04:23:52;;;;;;;17.28;11.68;;;;;;;11.48;100.00;99925.08;712926;1202;115430;-75
2021/05/27 04:39:12;;;;;;;5.70;3.60;;;;;;;11.76;100.00;99932.06;712742;1205;117090;-74
2021/05/27 04:54:33;;;;;;;4.58;3.00;;;;;;;12.08;100.00;99923.61;712570;1202;114844;-76
2021/05/27 05:09:53;;;;;;;5.78;3.70;;;;;;;12.63;100.00;99935.61;715672;1168;115617;-74
2021/05/27 05:25:15;;;;;;;4.60;3.40;;;;;;;12.55;100.00;99932.95;712398;1205;115348;-75
2021/05/27 05:40:36;;;;;;;8.28;5.85;;;;;;;12.50;100.00;99940.48;712215;1203;115072;-75
2021/05/27 05:55:57;;;;;;;9.50;5.30;;;;;;;12.71;100.00;99961.15;712326;1202;115570;-74
2021/05/27 06:11:18;;;;;;;7.98;6.05;;;;;;;12.42;100.00;99972.83;712329;1202;115546;-74
2021/05/27 06:26:39;;;;;;;12.25;7.13;;;;;;;12.51;100.00;99988.65;712522;1182;114610;-73
2021/05/27 06:41:59;;;;;;;8.60;5.83;;;;;;;12.92;100.00;99989.70;712775;1202;114781;-74
2021/05/27 06:57:19;;;;;;;12.20;7.30;;;;;;;12.70;100.00;100019.20;713536;1202;114438;-73
2021/05/27 07:12:54;;;;;;;7.87;5.30;;;;;;;13.08;100.00;100019.73;712502;1202;115780;-73
2021/05/27 07:28:15;;;;;;;8.35;4.38;;;;;;;12.88;100.00;100019.13;712527;1205;114942;-73
2021/05/27 07:43:36;;;;;;;5.28;3.30;;;;;;;13.55;100.00;100029.78;712663;1206;114021;-74
2021/05/27 07:58:59;;;;;;;4.85;2.90;;;;;;;14.06;100.00;100058.72;712223;1206;114283;-73
2021/05/27 08:14:20;;;;;;;3.10;2.70;;;;;;;13.84;100.00;100080.44;712320;1202;115182;-73
2021/05/27 08:29:40;;;;;;;4.20;3.30;;;;;;;15.10;100.00;100100.41;712591;1203;115242;-73
2021/05/27 08:45:07;;;;;;;1.98;1.73;;;;;;;15.72;94.74;100102.31;713011;1202;115518;-74
2021/05/27 09:00:28;;;;;;;11.70;9.63;;;;;;;15.89;94.80;100115.46;712981;1206;115297;-74
2021/05/27 09:15:50;;;;;;;2.33;1.88;;;;;;;15.41;89.66;100137.45;712536;1202;115444;-74
2021/05/27 09:31:14;;;;;;;1.60;1.40;;;;;;;16.22;86.62;100147.85;712579;1206;115303;-74
2021/05/27 09:46:53;;;;;;;2.45;1.40;;;;;;;16.44;80.87;100162.10;712659;1202;113973;-74
2021/05/27 10:02:18;;;;;;;3.10;1.70;;;;;;;17.28;76.95;100176.30;712587;1200;114418;-74
2021/05/27 10:17:41;;;;;;;2.83;2.30;;;;;;;18.66;75.88;100159.72;712743;1194;114967;-73
2021/05/27 10:33:05;;;;;;;7.08;3.65;;;;;;;18.58;71.95;100171.30;712478;1202;115383;-73
2021/05/27 10:48:30;;;;;;;5.15;4.28;;;;;;;17.86;80.99;100187.06;712445;1203;113975;-73
2021/05/27 11:03:55;;;;;;;5.10;3.80;;;;;;;19.34;77.54;100185.81;712469;1203;114327;-74
2021/05/27 11:35:07;;;;;;;4.78;3.88;;;;;;;18.62;73.68;100218.55;713462;1203;114270;-74
2021/05/27 11:50:27;;;;;;;3.98;3.60;;;;;;;18.99;70.54;100215.00;712829;1205;113838;-74
2021/05/27 12:05:48;;;;;;;3.50;2.30;;;;;;;19.88;64.90;100210.89;712394;1205;114514;-73
2021/05/27 12:21:08;;;;;;;3.40;2.20;;;;;;;18.94;61.73;100210.28;712463;1202;114938;-73
2021/05/27 12:36:29;;;;;;;4.07;2.00;;;;;;;19.01;63.25;100215.66;712756;1205;113998;-74
2021/05/27 12:51:50;;;;;;;2.00;1.40;;;;;;;18.41;60.57;100215.87;712891;1180;113815;-74
2021/05/27 13:07:13;;;;;;;3.10;2.60;;;;;;;17.96;62.54;100255.78;712474;1206;115245;-74
2021/05/27 13:22:34;;;;;;;3.90;2.85;;;;;;;17.54;65.08;100273.13;712380;1202;114049;-74
2021/05/27 13:37:58;;;;;;;3.08;2.40;;;;;;;19.02;65.86;100276.59;712565;1203;114811;-74
2021/05/27 13:53:19;;;;;;;2.23;1.75;;;;;;;18.59;63.27;100271.23;712453;1205;115085;-74
2021/05/27 14:08:41;;;;;;;2.47;2.10;;;;;;;18.15;63.44;100277.48;712987;1202;115203;-74
2021/05/27 14:24:03;;;;;;;3.50;2.27;;;;;;;17.96;64.55;100288.47;712380;1205;113952;-75
2021/05/27 14:39:23;;;;;;;5.10;3.00;;;;;;;18.28;63.73;100281.11;712352;1202;115664;-75
2021/05/27 14:54:44;;;;;;;3.23;2.70;;;;;;;18.71;63.22;100279.53;712330;1203;114669;-74
2021/05/27 15:10:05;;;;;;;7.20;3.90;;;;;;;18.95;62.77;100278.34;712689;1202;113999;-75
2021/05/27 15:25:27;;;;;;;4.40;2.83;;;;;;;18.70;63.03;100299.97;712761;1202;114831;-75
2021/05/27 15:40:50;;;;;;;5.33;2.95;;;;;;;19.62;62.18;100289.52;712590;1203;114588;-75
2021/05/27 15:56:10;;;;;;;72.83;45.13;;;;;;;19.60;62.54;100284.40;712503;1206;115127;-76
2021/05/27 16:11:31;;;;;;;3.23;2.87;;;;;;;19.37;63.24;100292.61;712522;1184;114208;-75
2021/05/27 16:26:51;;;;;;;3.10;2.30;;;;;;;18.42;64.70;100295.38;712621;1203;114082;-75
2021/05/27 16:42:12;;;;;;;5.40;2.80;;;;;;;17.51;66.67;100298.17;712808;1206;113946;-76
2021/05/27 16:57:34;;;;;;;9.68;4.33;;;;;;;17.39;68.21;100300.44;712886;1203;114017;-77
2021/05/27 17:12:56;;;;;;;5.40;4.35;;;;;;;17.07;68.67;100307.66;712952;1204;113851;-75
2021/05/27 17:28:17;;;;;;;8.03;4.03;;;;;;;16.68;69.69;100308.58;712942;1181;114369;-76
2021/05/27 17:43:37;;;;;;;10.25;6.13;;;;;;;16.94;69.94;100310.89;712846;1196;113721;-76
2021/05/27 17:58:58;;;;;;;8.50;6.20;;;;;;;16.64;72.74;100323.14;712932;1180;113910;-75
2021/05/27 18:14:19;;;;;;;25.00;13.90;;;;;;;16.47;74.67;100319.78;712500;1202;114730;-77
2021/05/27 18:29:39;;;;;;;84.90;56.50;;;;;;;16.30;77.91;100342.84;712824;1202;114268;-77
2021/05/27 18:44:59;;;;;;;12.90;9.03;;;;;;;15.35;80.88;100368.09;712679;1206;115334;-76
2021/05/27 19:00:22;;;;;;;48.95;18.40;;;;;;;14.53;84.69;100389.82;712554;1203;114638;-77
2021/05/27 19:15:43;;;;;;;7.47;5.20;;;;;;;14.19;87.19;100393.27;712715;1202;115996;-77
2021/05/27 19:31:07;;;;;;;3.45;2.33;;;;;;;13.72;91.09;100364.62;712902;1181;114111;-76
2021/05/27 19:46:27;;;;;;;20.58;9.35;;;;;;;13.36;93.91;100381.30;712832;1202;115277;-78
2021/05/27 20:01:48;;;;;;;16.73;8.43;;;;;;;13.14;97.21;100388.65;712819;1205;114105;-77
2021/05/27 20:17:08;;;;;;;16.83;10.13;;;;;;;13.06;99.38;100395.63;713338;1202;115494;-77
2021/05/27 20:32:29;;;;;;;14.33;8.07;;;;;;;12.78;100.00;100411.45;712943;1203;114514;-77
2021/05/27 20:47:50;;;;;;;23.80;12.37;;;;;;;12.60;100.00;100414.02;713342;1180;114191;-76
2021/05/27 21:03:10;;;;;;;12.33;6.68;;;;;;;12.36;100.00;100398.75;712754;1190;114423;-77
2021/05/27 21:18:31;;;;;;;11.43;6.50;;;;;;;12.26;100.00;100411.92;712876;1206;115003;-79
2021/05/27 21:33:51;;;;;;;5.38;3.93;;;;;;;11.63;100.00;100421.14;712691;1205;114574;-78
2021/05/27 21:49:12;;;;;;;12.90;8.38;;;;;;;11.78;100.00;100424.16;712626;1206;114546;-78
2021/05/27 22:04:32;;;;;;;18.40;10.83;;;;;;;11.59;100.00;100427.64;712825;1202;115329;-79
2021/05/27 22:19:53;;;;;;;7.25;5.23;;;;;;;11.34;100.00;100435.08;712797;1202;115166;-79
2021/05/27 22:35:13;;;;;;;12.17;6.90;;;;;;;11.26;100.00;100430.51;712911;1202;116167;-80
2021/05/27 22:50:35;;;;;;;14.53;9.57;;;;;;;10.84;100.00;100435.13;716084;1202;115553;-79
2021/05/27 23:05:55;;;;;;;10.50;6.40;;;;;;;10.70;100.00;100444.98;713550;1202;115405;-81
2021/05/27 23:21:16;;;;;;;10.40;7.10;;;;;;;10.60;100.00;100431.03;712852;1205;115801;-80
2021/05/27 23:36:36;;;;;;;15.07;8.43;;;;;;;10.43;100.00;100430.66;712772;1202;114928;-80
2021/05/27 23:51:57;;;;;;;15.43;8.35;;;;;;;10.28;100.00;100426.68;712613;1202;115759;-80
